sensor_id;sensor_type;location;lat;lon;timestamp;P1;durP1;ratioP1;P2;durP2;ratioP2
16665;SDS011;8446;50.998;6.250;2023-01-20T00:00:45;19.90;;;8.68;;
16665;SDS011;8446;50.998;6.250;2023-01-20T00:03:12;24.33;;;9.00;;
16665;SDS011;8446;50.998;6.250;2023-01-20T00:05:44;20.65;;;10.23;;
16665;SDS011;8446;50.998;6.250;2023-01-20T00:08:16;20.25;;;9.38;;
16665;SDS011;8446;50.998;6.250;2023-01-20T00:10:43;20.15;;;9.65;;
16665;SDS011;8446;50.998;6.250;2023-01-20T00:13:10;23.85;;;9.20;;
16665;SDS011;8446;50.998;6.250;2023-01-20T00:15:38;25.27;;;10.55;;
16665;SDS011;8446;50.998;6.250;2023-01-20T00:18:06;25.08;;;10.25;;
16665;SDS011;8446;50.998;6.250;2023-01-20T00:20:33;20.27;;;8.85;;
16665;SDS011;8446;50.998;6.250;2023-01-20T00:23:00;27.48;;;9.90;;
16665;SDS011;8446;50.998;6.250;2023-01-20T00:25:27;19.65;;;8.38;;
16665;SDS011;8446;50.998;6.250;2023-01-20T00:27:54;24.80;;;10.05;;
16665;SDS011;8446;50.998;6.250;2023-01-20T00:30:22;34.28;;;10.90;;
16665;SDS011;8446;50.998;6.250;2023-01-20T00:32:49;26.13;;;11.13;;
16665;SDS011;8446;50.998;6.250;2023-01-20T00:35:17;21.42;;;8.50;;
16665;SDS011;8446;50.998;6.250;2023-01-20T00:37:45;35.05;;;10.00;;
16665;SDS011;8446;50.998;6.250;2023-01-20T00:40:12;24.52;;;10.82;;
16665;SDS011;8446;50.998;6.250;2023-01-20T00:42:39;28.45;;;10.30;;
16665;SDS011;8446;50.998;6.250;2023-01-20T00:45:07;22.63;;;11.05;;
16665;SDS011;8446;50.998;6.250;2023-01-20T00:47:34;19.73;;;9.98;;
16665;SDS011;8446;50.998;6.250;2023-01-20T00:50:02;22.98;;;9.30;;
16665;SDS011;8446;50.998;6.250;2023-01-20T00:52:30;22.65;;;10.90;;
16665;SDS011;8446;50.998;6.250;2023-01-20T00:54:57;21.23;;;9.85;;
16665;SDS011;8446;50.998;6.250;2023-01-20T00:57:25;14.45;;;7.45;;
16665;SDS011;8446;50.998;6.250;2023-01-20T00:59:52;22.73;;;11.10;;
16665;SDS011;8446;50.998;6.250;2023-01-20T01:02:19;23.35;;;10.20;;
16665;SDS011;8446;50.998;6.250;2023-01-20T01:04:48;24.75;;;10.70;;
16665;SDS011;8446;50.998;6.250;2023-01-20T01:07:15;20.38;;;9.80;;
16665;SDS011;8446;50.998;6.250;2023-01-20T01:09:44;24.15;;;10.48;;
16665;SDS011;8446;50.998;6.250;2023-01-20T01:12:11;20.52;;;10.45;;
16665;SDS011;8446;50.998;6.250;2023-01-20T01:14:38;23.60;;;11.25;;
16665;SDS011;8446;50.998;6.250;2023-01-20T01:17:06;22.08;;;9.60;;
16665;SDS011;8446;50.998;6.250;2023-01-20T01:19:33;31.20;;;12.07;;
16665;SDS011;8446;50.998;6.250;2023-01-20T01:22:00;24.63;;;10.13;;
16665;SDS011;8446;50.998;6.250;2023-01-20T01:24:27;29.33;;;11.23;;
16665;SDS011;8446;50.998;6.250;2023-01-20T01:26:56;26.13;;;10.80;;
16665;SDS011;8446;50.998;6.250;2023-01-20T01:29:23;29.58;;;13.65;;
16665;SDS011;8446;50.998;6.250;2023-01-20T01:31:50;30.75;;;12.05;;
16665;SDS011;8446;50.998;6.250;2023-01-20T01:34:17;34.30;;;10.95;;
16665;SDS011;8446;50.998;6.250;2023-01-20T01:36:44;31.05;;;12.40;;
16665;SDS011;8446;50.998;6.250;2023-01-20T01:39:11;36.45;;;12.35;;
16665;SDS011;8446;50.998;6.250;2023-01-20T01:41:38;30.30;;;11.70;;
16665;SDS011;8446;50.998;6.250;2023-01-20T01:44:08;31.98;;;11.88;;
16665;SDS011;8446;50.998;6.250;2023-01-20T01:46:35;33.13;;;12.27;;
16665;SDS011;8446;50.998;6.250;2023-01-20T01:49:03;20.10;;;10.70;;
16665;SDS011;8446;50.998;6.250;2023-01-20T01:51:32;31.50;;;11.85;;
16665;SDS011;8446;50.998;6.250;2023-01-20T01:54:02;27.35;;;11.55;;
16665;SDS011;8446;50.998;6.250;2023-01-20T01:56:31;24.75;;;12.00;;
16665;SDS011;8446;50.998;6.250;2023-01-20T01:58:59;26.98;;;12.77;;
16665;SDS011;8446;50.998;6.250;2023-01-20T02:01:28;25.33;;;12.38;;
16665;SDS011;8446;50.998;6.250;2023-01-20T02:03:57;24.45;;;10.63;;
16665;SDS011;8446;50.998;6.250;2023-01-20T02:06:26;24.35;;;10.63;;
16665;SDS011;8446;50.998;6.250;2023-01-20T02:08:55;34.70;;;12.27;;
16665;SDS011;8446;50.998;6.250;2023-01-20T02:11:22;30.52;;;10.70;;
16665;SDS011;8446;50.998;6.250;2023-01-20T02:13:50;26.42;;;12.40;;
16665;SDS011;8446;50.998;6.250;2023-01-20T02:16:19;27.50;;;12.23;;
16665;SDS011;8446;50.998;6.250;2023-01-20T02:18:55;22.90;;;10.57;;
16665;SDS011;8446;50.998;6.250;2023-01-20T02:26:58;27.30;;;11.85;;
16665;SDS011;8446;50.998;6.250;2023-01-20T02:29:32;29.67;;;11.98;;
16665;SDS011;8446;50.998;6.250;2023-01-20T02:32:19;38.53;;;13.27;;
16665;SDS011;8446;50.998;6.250;2023-01-20T02:34:51;27.67;;;12.10;;
16665;SDS011;8446;50.998;6.250;2023-01-20T02:37:23;28.17;;;11.23;;
16665;SDS011;8446;50.998;6.250;2023-01-20T02:39:54;27.77;;;11.38;;
16665;SDS011;8446;50.998;6.250;2023-01-20T02:42:22;31.70;;;12.18;;
16665;SDS011;8446;50.998;6.250;2023-01-20T02:44:51;27.95;;;11.95;;
16665;SDS011;8446;50.998;6.250;2023-01-20T02:47:22;25.20;;;9.95;;
16665;SDS011;8446;50.998;6.250;2023-01-20T02:49:52;31.55;;;11.50;;
16665;SDS011;8446;50.998;6.250;2023-01-20T02:52:21;24.40;;;10.02;;
16665;SDS011;8446;50.998;6.250;2023-01-20T02:54:49;25.17;;;10.20;;
16665;SDS011;8446;50.998;6.250;2023-01-20T02:57:19;25.73;;;11.20;;
16665;SDS011;8446;50.998;6.250;2023-01-20T02:59:49;24.95;;;11.15;;
16665;SDS011;8446;50.998;6.250;2023-01-20T03:02:19;23.13;;;10.18;;
16665;SDS011;8446;50.998;6.250;2023-01-20T03:04:48;27.67;;;12.70;;
16665;SDS011;8446;50.998;6.250;2023-01-20T03:07:17;30.30;;;11.85;;
16665;SDS011;8446;50.998;6.250;2023-01-20T03:09:47;28.10;;;10.55;;
16665;SDS011;8446;50.998;6.250;2023-01-20T03:12:17;20.85;;;10.27;;
16665;SDS011;8446;50.998;6.250;2023-01-20T03:14:46;28.77;;;11.15;;
16665;SDS011;8446;50.998;6.250;2023-01-20T03:17:13;22.80;;;10.38;;
16665;SDS011;8446;50.998;6.250;2023-01-20T03:19:41;30.00;;;9.07;;
16665;SDS011;8446;50.998;6.250;2023-01-20T03:22:09;18.05;;;9.98;;
16665;SDS011;8446;50.998;6.250;2023-01-20T03:24:36;29.77;;;11.30;;
16665;SDS011;8446;50.998;6.250;2023-01-20T03:27:04;21.83;;;10.70;;
16665;SDS011;8446;50.998;6.250;2023-01-20T03:29:31;18.75;;;10.23;;
16665;SDS011;8446;50.998;6.250;2023-01-20T03:31:59;24.88;;;10.65;;
16665;SDS011;8446;50.998;6.250;2023-01-20T03:34:27;22.40;;;9.57;;
16665;SDS011;8446;50.998;6.250;2023-01-20T03:36:55;27.38;;;10.18;;
16665;SDS011;8446;50.998;6.250;2023-01-20T03:39:25;22.25;;;9.63;;
16665;SDS011;8446;50.998;6.250;2023-01-20T03:41:56;25.73;;;10.48;;
16665;SDS011;8446;50.998;6.250;2023-01-20T03:44:26;19.63;;;8.93;;
16665;SDS011;8446;50.998;6.250;2023-01-20T03:47:00;22.52;;;10.88;;
16665;SDS011;8446;50.998;6.250;2023-01-20T03:49:28;25.35;;;10.30;;
16665;SDS011;8446;50.998;6.250;2023-01-20T03:52:00;14.35;;;8.50;;
16665;SDS011;8446;50.998;6.250;2023-01-20T03:54:32;25.08;;;11.75;;
16665;SDS011;8446;50.998;6.250;2023-01-20T03:57:00;23.88;;;9.93;;
16665;SDS011;8446;50.998;6.250;2023-01-20T03:59:31;24.15;;;9.45;;
16665;SDS011;8446;50.998;6.250;2023-01-20T04:01:59;22.42;;;10.20;;
16665;SDS011;8446;50.998;6.250;2023-01-20T04:04:28;25.63;;;11.02;;
16665;SDS011;8446;50.998;6.250;2023-01-20T04:06:55;21.63;;;10.25;;
16665;SDS011;8446;50.998;6.250;2023-01-20T04:09:23;27.73;;;11.30;;
16665;SDS011;8446;50.998;6.250;2023-01-20T04:11:53;25.30;;;10.98;;
16665;SDS011;8446;50.998;6.250;2023-01-20T04:14:20;24.45;;;11.07;;
16665;SDS011;8446;50.998;6.250;2023-01-20T04:16:48;23.27;;;9.57;;
16665;SDS011;8446;50.998;6.250;2023-01-20T04:19:16;25.35;;;10.73;;
16665;SDS011;8446;50.998;6.250;2023-01-20T04:21:43;20.00;;;10.93;;
16665;SDS011;8446;50.998;6.250;2023-01-20T04:24:13;30.17;;;10.73;;
16665;SDS011;8446;50.998;6.250;2023-01-20T04:26:40;19.75;;;9.90;;
16665;SDS011;8446;50.998;6.250;2023-01-20T04:29:09;25.58;;;10.23;;
16665;SDS011;8446;50.998;6.250;2023-01-20T04:31:36;24.10;;;11.18;;
16665;SDS011;8446;50.998;6.250;2023-01-20T04:34:04;16.48;;;8.40;;
16665;SDS011;8446;50.998;6.250;2023-01-20T04:36:32;22.50;;;11.23;;
16665;SDS011;8446;50.998;6.250;2023-01-20T04:38:59;27.05;;;11.52;;
16665;SDS011;8446;50.998;6.250;2023-01-20T04:41:26;33.47;;;13.95;;
16665;SDS011;8446;50.998;6.250;2023-01-20T04:43:53;27.35;;;13.00;;
16665;SDS011;8446;50.998;6.250;2023-01-20T04:46:21;25.88;;;12.38;;
16665;SDS011;8446;50.998;6.250;2023-01-20T04:48:48;28.17;;;12.68;;
16665;SDS011;8446;50.998;6.250;2023-01-20T04:51:16;25.42;;;10.68;;
16665;SDS011;8446;50.998;6.250;2023-01-20T04:53:43;31.23;;;13.68;;
16665;SDS011;8446;50.998;6.250;2023-01-20T04:56:10;45.50;;;12.48;;
16665;SDS011;8446;50.998;6.250;2023-01-20T04:58:37;21.05;;;11.52;;
16665;SDS011;8446;50.998;6.250;2023-01-20T05:01:05;31.15;;;12.60;;
16665;SDS011;8446;50.998;6.250;2023-01-20T05:03:33;29.50;;;12.65;;
16665;SDS011;8446;50.998;6.250;2023-01-20T05:06:00;31.63;;;13.93;;
16665;SDS011;8446;50.998;6.250;2023-01-20T05:08:27;31.25;;;13.80;;
16665;SDS011;8446;50.998;6.250;2023-01-20T05:10:55;25.50;;;10.70;;
16665;SDS011;8446;50.998;6.250;2023-01-20T05:13:22;28.30;;;13.30;;
16665;SDS011;8446;50.998;6.250;2023-01-20T05:15:49;28.67;;;12.15;;
16665;SDS011;8446;50.998;6.250;2023-01-20T05:18:16;31.85;;;12.25;;
16665;SDS011;8446;50.998;6.250;2023-01-20T05:20:45;28.08;;;12.32;;
16665;SDS011;8446;50.998;6.250;2023-01-20T05:23:12;34.40;;;12.75;;
16665;SDS011;8446;50.998;6.250;2023-01-20T05:25:40;25.20;;;12.60;;
16665;SDS011;8446;50.998;6.250;2023-01-20T05:28:07;30.70;;;11.50;;
16665;SDS011;8446;50.998;6.250;2023-01-20T05:30:34;22.70;;;12.23;;
16665;SDS011;8446;50.998;6.250;2023-01-20T05:33:01;29.65;;;12.57;;
16665;SDS011;8446;50.998;6.250;2023-01-20T05:35:28;29.70;;;13.07;;
16665;SDS011;8446;50.998;6.250;2023-01-20T05:37:57;21.48;;;10.98;;
16665;SDS011;8446;50.998;6.250;2023-01-20T05:40:24;27.00;;;11.23;;
16665;SDS011;8446;50.998;6.250;2023-01-20T05:42:51;26.40;;;13.32;;
16665;SDS011;8446;50.998;6.250;2023-01-20T05:45:18;26.75;;;12.30;;
16665;SDS011;8446;50.998;6.250;2023-01-20T05:47:46;24.33;;;11.85;;
16665;SDS011;8446;50.998;6.250;2023-01-20T05:50:13;19.48;;;10.55;;
16665;SDS011;8446;50.998;6.250;2023-01-20T05:52:40;26.65;;;12.23;;
16665;SDS011;8446;50.998;6.250;2023-01-20T05:55:09;29.83;;;12.07;;
16665;SDS011;8446;50.998;6.250;2023-01-20T05:57:36;26.30;;;10.30;;
16665;SDS011;8446;50.998;6.250;2023-01-20T06:00:04;25.42;;;11.68;;
16665;SDS011;8446;50.998;6.250;2023-01-20T06:02:31;31.30;;;12.10;;
16665;SDS011;8446;50.998;6.250;2023-01-20T06:04:58;28.42;;;12.93;;
16665;SDS011;8446;50.998;6.250;2023-01-20T06:07:26;35.83;;;15.20;;
16665;SDS011;8446;50.998;6.250;2023-01-20T06:09:53;30.55;;;13.02;;
16665;SDS011;8446;50.998;6.250;2023-01-20T06:12:22;10.30;;;5.80;;
16665;SDS011;8446;50.998;6.250;2023-01-20T06:14:50;28.60;;;11.93;;
16665;SDS011;8446;50.998;6.250;2023-01-20T06:17:17;27.42;;;11.65;;
16665;SDS011;8446;50.998;6.250;2023-01-20T06:19:44;28.73;;;11.45;;
16665;SDS011;8446;50.998;6.250;2023-01-20T06:22:12;31.40;;;12.18;;
16665;SDS011;8446;50.998;6.250;2023-01-20T06:24:39;25.63;;;11.32;;
16665;SDS011;8446;50.998;6.250;2023-01-20T06:27:07;32.83;;;14.38;;
16665;SDS011;8446;50.998;6.250;2023-01-20T06:29:36;23.02;;;13.13;;
16665;SDS011;8446;50.998;6.250;2023-01-20T06:32:04;31.50;;;11.50;;
16665;SDS011;8446;50.998;6.250;2023-01-20T06:34:31;28.17;;;10.75;;
16665;SDS011;8446;50.998;6.250;2023-01-20T06:36:58;30.55;;;11.05;;
16665;SDS011;8446;50.998;6.250;2023-01-20T06:39:26;34.15;;;12.02;;
16665;SDS011;8446;50.998;6.250;2023-01-20T06:41:55;27.65;;;12.05;;
16665;SDS011;8446;50.998;6.250;2023-01-20T06:44:22;32.45;;;12.50;;
16665;SDS011;8446;50.998;6.250;2023-01-20T06:46:51;23.05;;;10.02;;
16665;SDS011;8446;50.998;6.250;2023-01-20T06:49:18;26.63;;;12.27;;
16665;SDS011;8446;50.998;6.250;2023-01-20T06:51:45;31.17;;;12.60;;
16665;SDS011;8446;50.998;6.250;2023-01-20T06:54:13;22.40;;;10.30;;
16665;SDS011;8446;50.998;6.250;2023-01-20T06:56:40;19.85;;;10.50;;
16665;SDS011;8446;50.998;6.250;2023-01-20T06:59:08;21.45;;;10.05;;
16665;SDS011;8446;50.998;6.250;2023-01-20T07:01:35;29.65;;;12.27;;
16665;SDS011;8446;50.998;6.250;2023-01-20T07:04:04;29.25;;;10.70;;
16665;SDS011;8446;50.998;6.250;2023-01-20T07:06:33;21.67;;;11.13;;
16665;SDS011;8446;50.998;6.250;2023-01-20T07:09:03;26.40;;;12.05;;
16665;SDS011;8446;50.998;6.250;2023-01-20T07:11:31;33.63;;;11.68;;
16665;SDS011;8446;50.998;6.250;2023-01-20T07:13:59;26.67;;;12.00;;
16665;SDS011;8446;50.998;6.250;2023-01-20T07:16:26;21.83;;;11.27;;
16665;SDS011;8446;50.998;6.250;2023-01-20T07:18:53;24.73;;;11.98;;
16665;SDS011;8446;50.998;6.250;2023-01-20T07:21:22;26.17;;;11.50;;
16665;SDS011;8446;50.998;6.250;2023-01-20T07:23:49;24.33;;;11.88;;
16665;SDS011;8446;50.998;6.250;2023-01-20T07:26:40;27.65;;;11.73;;
16665;SDS011;8446;50.998;6.250;2023-01-20T07:29:07;30.23;;;12.35;;
16665;SDS011;8446;50.998;6.250;2023-01-20T07:31:35;29.67;;;13.55;;
16665;SDS011;8446;50.998;6.250;2023-01-20T07:34:02;28.40;;;12.68;;
16665;SDS011;8446;50.998;6.250;2023-01-20T07:36:31;29.55;;;12.35;;
16665;SDS011;8446;50.998;6.250;2023-01-20T07:38:58;30.50;;;12.68;;
16665;SDS011;8446;50.998;6.250;2023-01-20T07:41:25;27.58;;;13.15;;
16665;SDS011;8446;50.998;6.250;2023-01-20T07:43:53;26.00;;;12.77;;
16665;SDS011;8446;50.998;6.250;2023-01-20T07:46:20;26.52;;;12.02;;
16665;SDS011;8446;50.998;6.250;2023-01-20T07:48:47;24.27;;;11.27;;
16665;SDS011;8446;50.998;6.250;2023-01-20T07:51:15;26.25;;;11.00;;
16665;SDS011;8446;50.998;6.250;2023-01-20T07:53:45;27.48;;;11.15;;
16665;SDS011;8446;50.998;6.250;2023-01-20T07:56:12;21.80;;;11.40;;
16665;SDS011;8446;50.998;6.250;2023-01-20T07:58:40;19.30;;;9.05;;
16665;SDS011;8446;50.998;6.250;2023-01-20T08:01:10;24.17;;;11.02;;
16665;SDS011;8446;50.998;6.250;2023-01-20T08:03:37;21.70;;;8.88;;
16665;SDS011;8446;50.998;6.250;2023-01-20T08:06:04;27.23;;;9.73;;
16665;SDS011;8446;50.998;6.250;2023-01-20T08:08:32;17.48;;;9.15;;
16665;SDS011;8446;50.998;6.250;2023-01-20T08:11:01;24.83;;;9.50;;
16665;SDS011;8446;50.998;6.250;2023-01-20T08:13:28;24.90;;;10.00;;
16665;SDS011;8446;50.998;6.250;2023-01-20T08:15:58;28.10;;;11.40;;
16665;SDS011;8446;50.998;6.250;2023-01-20T08:18:26;22.67;;;10.60;;
16665;SDS011;8446;50.998;6.250;2023-01-20T08:20:53;20.88;;;11.23;;
16665;SDS011;8446;50.998;6.250;2023-01-20T08:23:20;13.75;;;8.55;;
16665;SDS011;8446;50.998;6.250;2023-01-20T08:25:47;13.95;;;7.78;;
16665;SDS011;8446;50.998;6.250;2023-01-20T08:28:17;24.05;;;10.23;;
16665;SDS011;8446;50.998;6.250;2023-01-20T08:30:44;16.70;;;8.40;;
16665;SDS011;8446;50.998;6.250;2023-01-20T08:33:11;18.95;;;8.57;;
16665;SDS011;8446;50.998;6.250;2023-01-20T08:35:38;16.25;;;9.15;;
16665;SDS011;8446;50.998;6.250;2023-01-20T08:38:05;16.35;;;9.40;;
16665;SDS011;8446;50.998;6.250;2023-01-20T08:40:33;18.08;;;9.05;;
16665;SDS011;8446;50.998;6.250;2023-01-20T08:43:00;18.08;;;9.15;;
16665;SDS011;8446;50.998;6.250;2023-01-20T08:45:29;16.33;;;8.13;;
16665;SDS011;8446;50.998;6.250;2023-01-20T08:47:56;19.23;;;9.23;;
16665;SDS011;8446;50.998;6.250;2023-01-20T08:50:23;17.00;;;8.60;;
16665;SDS011;8446;50.998;6.250;2023-01-20T08:52:51;21.60;;;9.55;;
16665;SDS011;8446;50.998;6.250;2023-01-20T08:55:18;18.63;;;8.07;;
16665;SDS011;8446;50.998;6.250;2023-01-20T08:57:45;27.77;;;10.32;;
16665;SDS011;8446;50.998;6.250;2023-01-20T09:00:13;18.20;;;8.60;;
16665;SDS011;8446;50.998;6.250;2023-01-20T09:02:42;19.50;;;8.55;;
16665;SDS011;8446;50.998;6.250;2023-01-20T09:05:09;20.98;;;8.48;;
16665;SDS011;8446;50.998;6.250;2023-01-20T09:07:38;13.25;;;7.85;;
16665;SDS011;8446;50.998;6.250;2023-01-20T09:10:05;16.20;;;8.35;;
16665;SDS011;8446;50.998;6.250;2023-01-20T09:12:32;16.73;;;8.57;;
16665;SDS011;8446;50.998;6.250;2023-01-20T09:15:01;17.95;;;8.60;;
16665;SDS011;8446;50.998;6.250;2023-01-20T09:17:31;21.80;;;9.25;;
16665;SDS011;8446;50.998;6.250;2023-01-20T09:19:59;21.67;;;9.43;;
16665;SDS011;8446;50.998;6.250;2023-01-20T09:22:27;9.52;;;6.47;;
16665;SDS011;8446;50.998;6.250;2023-01-20T09:24:54;19.80;;;8.85;;
16665;SDS011;8446;50.998;6.250;2023-01-20T09:27:21;15.73;;;8.75;;
16665;SDS011;8446;50.998;6.250;2023-01-20T09:29:49;18.67;;;9.93;;
16665;SDS011;8446;50.998;6.250;2023-01-20T09:32:16;19.42;;;9.25;;
16665;SDS011;8446;50.998;6.250;2023-01-20T09:34:43;21.27;;;8.80;;
16665;SDS011;8446;50.998;6.250;2023-01-20T09:37:12;16.67;;;8.25;;
16665;SDS011;8446;50.998;6.250;2023-01-20T09:39:57;15.77;;;7.60;;
16665;SDS011;8446;50.998;6.250;2023-01-20T09:42:47;18.92;;;8.20;;
16665;SDS011;8446;50.998;6.250;2023-01-20T09:45:39;13.40;;;8.23;;
16665;SDS011;8446;50.998;6.250;2023-01-20T09:48:10;15.95;;;8.80;;
16665;SDS011;8446;50.998;6.250;2023-01-20T09:50:56;20.98;;;9.25;;
16665;SDS011;8446;50.998;6.250;2023-01-20T09:53:47;11.45;;;5.95;;
16665;SDS011;8446;50.998;6.250;2023-01-20T09:56:16;20.02;;;9.68;;
16665;SDS011;8446;50.998;6.250;2023-01-20T09:58:45;13.35;;;7.38;;
16665;SDS011;8446;50.998;6.250;2023-01-20T10:01:15;18.95;;;8.93;;
16665;SDS011;8446;50.998;6.250;2023-01-20T10:03:45;17.83;;;8.32;;
16665;SDS011;8446;50.998;6.250;2023-01-20T10:06:15;15.98;;;8.23;;
16665;SDS011;8446;50.998;6.250;2023-01-20T10:08:51;24.80;;;9.57;;
16665;SDS011;8446;50.998;6.250;2023-01-20T10:11:19;19.83;;;9.40;;
16665;SDS011;8446;50.998;6.250;2023-01-20T10:13:49;15.13;;;7.93;;
16665;SDS011;8446;50.998;6.250;2023-01-20T10:16:21;12.43;;;7.32;;
16665;SDS011;8446;50.998;6.250;2023-01-20T10:18:50;19.00;;;8.02;;
16665;SDS011;8446;50.998;6.250;2023-01-20T10:21:19;28.63;;;9.20;;
16665;SDS011;8446;50.998;6.250;2023-01-20T10:23:50;17.50;;;7.20;;
16665;SDS011;8446;50.998;6.250;2023-01-20T10:26:20;16.23;;;8.27;;
16665;SDS011;8446;50.998;6.250;2023-01-20T10:28:50;14.80;;;7.47;;
16665;SDS011;8446;50.998;6.250;2023-01-20T10:31:20;12.25;;;6.80;;
16665;SDS011;8446;50.998;6.250;2023-01-20T10:33:49;18.70;;;7.40;;
16665;SDS011;8446;50.998;6.250;2023-01-20T10:36:21;15.15;;;6.88;;
16665;SDS011;8446;50.998;6.250;2023-01-20T10:38:53;15.48;;;8.23;;
16665;SDS011;8446;50.998;6.250;2023-01-20T10:41:25;17.88;;;8.48;;
16665;SDS011;8446;50.998;6.250;2023-01-20T10:43:53;13.98;;;7.30;;
16665;SDS011;8446;50.998;6.250;2023-01-20T10:46:27;13.98;;;6.70;;
16665;SDS011;8446;50.998;6.250;2023-01-20T10:49:08;12.80;;;6.90;;
16665;SDS011;8446;50.998;6.250;2023-01-20T10:51:41;14.68;;;7.63;;
16665;SDS011;8446;50.998;6.250;2023-01-20T10:54:15;15.20;;;7.53;;
16665;SDS011;8446;50.998;6.250;2023-01-20T10:56:45;15.07;;;6.68;;
16665;SDS011;8446;50.998;6.250;2023-01-20T10:59:19;13.82;;;6.97;;
16665;SDS011;8446;50.998;6.250;2023-01-20T11:01:48;15.20;;;6.90;;
16665;SDS011;8446;50.998;6.250;2023-01-20T11:04:17;16.40;;;7.40;;
16665;SDS011;8446;50.998;6.250;2023-01-20T11:06:45;9.05;;;5.53;;
16665;SDS011;8446;50.998;6.250;2023-01-20T11:09:18;15.57;;;6.55;;
16665;SDS011;8446;50.998;6.250;2023-01-20T11:11:46;14.32;;;6.80;;
16665;SDS011;8446;50.998;6.250;2023-01-20T11:14:13;11.98;;;6.40;;
16665;SDS011;8446;50.998;6.250;2023-01-20T11:16:41;12.85;;;6.97;;
16665;SDS011;8446;50.998;6.250;2023-01-20T11:19:10;14.48;;;7.03;;
16665;SDS011;8446;50.998;6.250;2023-01-20T11:21:38;11.65;;;5.57;;
16665;SDS011;8446;50.998;6.250;2023-01-20T11:24:23;8.50;;;5.60;;
16665;SDS011;8446;50.998;6.250;2023-01-20T11:27:01;10.77;;;6.03;;
16665;SDS011;8446;50.998;6.250;2023-01-20T11:29:29;14.82;;;6.78;;
16665;SDS011;8446;50.998;6.250;2023-01-20T11:31:59;7.82;;;4.43;;
16665;SDS011;8446;50.998;6.250;2023-01-20T11:34:27;16.20;;;4.55;;
16665;SDS011;8446;50.998;6.250;2023-01-20T11:39:41;7.78;;;4.75;;
16665;SDS011;8446;50.998;6.250;2023-01-20T11:42:12;10.25;;;6.25;;
16665;SDS011;8446;50.998;6.250;2023-01-20T11:44:40;9.30;;;5.47;;
16665;SDS011;8446;50.998;6.250;2023-01-20T11:47:15;11.68;;;5.22;;
16665;SDS011;8446;50.998;6.250;2023-01-20T11:49:42;8.35;;;5.30;;
16665;SDS011;8446;50.998;6.250;2023-01-20T11:52:18;9.63;;;5.63;;
16665;SDS011;8446;50.998;6.250;2023-01-20T11:54:46;8.05;;;4.80;;
16665;SDS011;8446;50.998;6.250;2023-01-20T11:57:15;10.32;;;5.50;;
16665;SDS011;8446;50.998;6.250;2023-01-20T11:59:46;7.50;;;4.88;;
16665;SDS011;8446;50.998;6.250;2023-01-20T12:02:20;6.00;;;4.60;;
16665;SDS011;8446;50.998;6.250;2023-01-20T12:04:54;7.95;;;4.32;;
16665;SDS011;8446;50.998;6.250;2023-01-20T12:07:24;8.27;;;3.78;;
16665;SDS011;8446;50.998;6.250;2023-01-20T12:09:53;6.50;;;4.05;;
16665;SDS011;8446;50.998;6.250;2023-01-20T12:12:27;6.05;;;4.43;;
16665;SDS011;8446;50.998;6.250;2023-01-20T12:14:59;6.50;;;4.00;;
16665;SDS011;8446;50.998;6.250;2023-01-20T12:17:34;5.00;;;3.40;;
16665;SDS011;8446;50.998;6.250;2023-01-20T12:20:04;6.40;;;3.55;;
16665;SDS011;8446;50.998;6.250;2023-01-20T12:22:34;6.22;;;4.03;;
16665;SDS011;8446;50.998;6.250;2023-01-20T12:25:10;5.05;;;3.10;;
16665;SDS011;8446;50.998;6.250;2023-01-20T12:27:44;4.80;;;3.40;;
16665;SDS011;8446;50.998;6.250;2023-01-20T12:30:18;8.20;;;4.25;;
16665;SDS011;8446;50.998;6.250;2023-01-20T12:32:48;5.82;;;3.78;;
16665;SDS011;8446;50.998;6.250;2023-01-20T12:35:16;6.30;;;3.90;;
16665;SDS011;8446;50.998;6.250;2023-01-20T12:37:46;6.55;;;4.00;;
16665;SDS011;8446;50.998;6.250;2023-01-20T12:40:21;5.10;;;4.03;;
16665;SDS011;8446;50.998;6.250;2023-01-20T12:42:59;6.32;;;4.18;;
16665;SDS011;8446;50.998;6.250;2023-01-20T12:45:33;5.35;;;3.80;;
16665;SDS011;8446;50.998;6.250;2023-01-20T12:48:04;10.38;;;4.45;;
16665;SDS011;8446;50.998;6.250;2023-01-20T12:50:35;5.97;;;4.22;;
16665;SDS011;8446;50.998;6.250;2023-01-20T12:53:08;7.10;;;4.80;;
16665;SDS011;8446;50.998;6.250;2023-01-20T12:55:42;5.85;;;4.22;;
16665;SDS011;8446;50.998;6.250;2023-01-20T12:58:17;9.30;;;5.05;;
16665;SDS011;8446;50.998;6.250;2023-01-20T13:00:48;6.88;;;4.88;;
16665;SDS011;8446;50.998;6.250;2023-01-20T13:06:15;9.50;;;5.22;;
16665;SDS011;8446;50.998;6.250;2023-01-20T13:08:49;6.75;;;4.93;;
16665;SDS011;8446;50.998;6.250;2023-01-20T13:11:20;9.55;;;4.88;;
16665;SDS011;8446;50.998;6.250;2023-01-20T13:13:57;11.05;;;4.38;;
16665;SDS011;8446;50.998;6.250;2023-01-20T13:16:28;6.63;;;4.18;;
16665;SDS011;8446;50.998;6.250;2023-01-20T13:18:58;7.35;;;4.30;;
16665;SDS011;8446;50.998;6.250;2023-01-20T13:21:29;5.63;;;4.15;;
16665;SDS011;8446;50.998;6.250;2023-01-20T13:23:57;12.55;;;4.93;;
16665;SDS011;8446;50.998;6.250;2023-01-20T13:26:24;9.00;;;4.30;;
16665;SDS011;8446;50.998;6.250;2023-01-20T13:28:52;5.53;;;3.90;;
16665;SDS011;8446;50.998;6.250;2023-01-20T13:39:42;16.35;;;4.57;;
16665;SDS011;8446;50.998;6.250;2023-01-20T13:42:30;6.80;;;4.15;;
16665;SDS011;8446;50.998;6.250;2023-01-20T13:45:17;11.88;;;4.78;;
16665;SDS011;8446;50.998;6.250;2023-01-20T13:47:50;9.32;;;4.57;;
16665;SDS011;8446;50.998;6.250;2023-01-20T13:50:22;6.18;;;4.13;;
16665;SDS011;8446;50.998;6.250;2023-01-20T13:53:03;7.32;;;4.82;;
16665;SDS011;8446;50.998;6.250;2023-01-20T13:58:13;8.57;;;4.75;;
16665;SDS011;8446;50.998;6.250;2023-01-20T14:00:41;7.80;;;5.03;;
16665;SDS011;8446;50.998;6.250;2023-01-20T14:03:11;9.27;;;5.25;;
16665;SDS011;8446;50.998;6.250;2023-01-20T14:05:38;7.70;;;4.60;;
16665;SDS011;8446;50.998;6.250;2023-01-20T14:08:11;8.20;;;5.22;;
16665;SDS011;8446;50.998;6.250;2023-01-20T14:10:39;7.07;;;4.68;;
16665;SDS011;8446;50.998;6.250;2023-01-20T14:13:07;8.02;;;5.18;;
16665;SDS011;8446;50.998;6.250;2023-01-20T14:15:37;8.65;;;5.65;;
16665;SDS011;8446;50.998;6.250;2023-01-20T14:18:13;8.77;;;4.88;;
16665;SDS011;8446;50.998;6.250;2023-01-20T14:20:40;8.23;;;5.00;;
16665;SDS011;8446;50.998;6.250;2023-01-20T14:23:20;6.57;;;4.43;;
16665;SDS011;8446;50.998;6.250;2023-01-20T14:25:55;7.05;;;4.85;;
16665;SDS011;8446;50.998;6.250;2023-01-20T14:28:23;6.93;;;4.35;;
16665;SDS011;8446;50.998;6.250;2023-01-20T14:31:04;11.15;;;4.78;;
16665;SDS011;8446;50.998;6.250;2023-01-20T14:33:41;6.70;;;4.45;;
16665;SDS011;8446;50.998;6.250;2023-01-20T14:36:10;4.97;;;3.85;;
16665;SDS011;8446;50.998;6.250;2023-01-20T14:38:38;6.88;;;4.32;;
16665;SDS011;8446;50.998;6.250;2023-01-20T14:41:20;6.65;;;5.10;;
16665;SDS011;8446;50.998;6.250;2023-01-20T14:43:48;6.75;;;4.45;;
16665;SDS011;8446;50.998;6.250;2023-01-20T14:46:17;6.82;;;4.55;;
16665;SDS011;8446;50.998;6.250;2023-01-20T14:48:44;9.30;;;5.25;;
16665;SDS011;8446;50.998;6.250;2023-01-20T14:51:12;9.55;;;5.13;;
16665;SDS011;8446;50.998;6.250;2023-01-20T14:53:40;15.35;;;6.15;;
16665;SDS011;8446;50.998;6.250;2023-01-20T14:56:12;16.75;;;6.10;;
16665;SDS011;8446;50.998;6.250;2023-01-20T14:58:43;12.27;;;6.35;;
16665;SDS011;8446;50.998;6.250;2023-01-20T15:01:14;10.13;;;5.97;;
16665;SDS011;8446;50.998;6.250;2023-01-20T15:03:45;10.55;;;6.10;;
16665;SDS011;8446;50.998;6.250;2023-01-20T15:06:16;12.70;;;6.38;;
16665;SDS011;8446;50.998;6.250;2023-01-20T15:08:44;11.98;;;7.93;;
16665;SDS011;8446;50.998;6.250;2023-01-20T15:11:17;14.27;;;7.53;;
16665;SDS011;8446;50.998;6.250;2023-01-20T15:16:29;9.45;;;5.45;;
16665;SDS011;8446;50.998;6.250;2023-01-20T15:21:48;16.15;;;7.32;;
16665;SDS011;8446;50.998;6.250;2023-01-20T15:24:16;10.63;;;5.65;;